sensor_id;sensor_type;location;lat;lon;timestamp;pressure;altitude;pressure_sealevel;temperature;humidity
47280;BME280;34064;44.942;0.008;2023-02-15T00:00:09;99945.72;;;9.17;57.53
47280;BME280;34064;44.942;0.008;2023-02-15T00:02:40;99944.59;;;9.21;56.77
47280;BME280;34064;44.942;0.008;2023-02-15T00:05:08;99933.06;;;9.22;56.55
47280;BME280;34064;44.942;0.008;2023-02-15T00:07:35;99941.13;;;9.20;56.45
47280;BME280;34064;44.942;0.008;2023-02-15T00:10:03;99939.50;;;9.18;56.62
47280;BME280;34064;44.942;0.008;2023-02-15T00:12:31;99935.91;;;9.19;57.16
47280;BME280;34064;44.942;0.008;2023-02-15T00:14:58;99928.63;;;9.23;56.88
47280;BME280;34064;44.942;0.008;2023-02-15T00:17:28;99928.41;;;9.27;56.86
47280;BME280;34064;44.942;0.008;2023-02-15T00:19:55;99931.81;;;9.29;57.39
47280;BME280;34064;44.942;0.008;2023-02-15T00:22:22;99929.94;;;9.31;56.78
47280;BME280;34064;44.942;0.008;2023-02-15T00:24:50;99934.22;;;9.34;56.92
47280;BME280;34064;44.942;0.008;2023-02-15T00:27:17;99933.53;;;9.30;57.95
47280;BME280;34064;44.942;0.008;2023-02-15T00:29:46;99922.75;;;9.33;56.90
47280;BME280;34064;44.942;0.008;2023-02-15T00:32:13;99925.66;;;9.29;58.07
47280;BME280;34064;44.942;0.008;2023-02-15T00:34:41;99915.97;;;9.28;57.66
47280;BME280;34064;44.942;0.008;2023-02-15T00:37:08;99917.63;;;9.30;57.67
47280;BME280;34064;44.942;0.008;2023-02-15T00:39:36;99917.88;;;9.26;58.28
47280;BME280;34064;44.942;0.008;2023-02-15T00:42:03;99911.47;;;9.30;57.28
47280;BME280;34064;44.942;0.008;2023-02-15T00:44:31;99903.41;;;9.31;57.80
47280;BME280;34064;44.942;0.008;2023-02-15T00:46:59;99901.63;;;9.32;57.17
47280;BME280;34064;44.942;0.008;2023-02-15T00:49:26;99908.72;;;9.31;57.67
47280;BME280;34064;44.942;0.008;2023-02-15T00:51:53;99905.22;;;9.31;57.36
47280;BME280;34064;44.942;0.008;2023-02-15T00:54:19;99905.31;;;9.29;57.20
47280;BME280;34064;44.942;0.008;2023-02-15T00:56:46;99910.69;;;9.28;57.00
47280;BME280;34064;44.942;0.008;2023-02-15T00:59:12;99908.28;;;9.23;56.98
47280;BME280;34064;44.942;0.008;2023-02-15T01:01:38;99907.72;;;9.16;57.56
47280;BME280;34064;44.942;0.008;2023-02-15T01:04:05;99910.56;;;9.13;57.20
47280;BME280;34064;44.942;0.008;2023-02-15T01:06:33;99917.19;;;9.04;57.76
47280;BME280;34064;44.942;0.008;2023-02-15T01:09:00;99922.84;;;8.98;57.67
47280;BME280;34064;44.942;0.008;2023-02-15T01:11:28;99922.84;;;8.98;57.46
47280;BME280;34064;44.942;0.008;2023-02-15T01:13:57;99918.00;;;8.89;57.70
47280;BME280;34064;44.942;0.008;2023-02-15T01:16:27;99912.72;;;8.89;57.33
47280;BME280;34064;44.942;0.008;2023-02-15T01:18:54;99912.06;;;8.84;57.26
47280;BME280;34064;44.942;0.008;2023-02-15T01:21:24;99916.63;;;8.82;57.16
47280;BME280;34064;44.942;0.008;2023-02-15T01:23:52;99926.44;;;8.80;56.86
47280;BME280;34064;44.942;0.008;2023-02-15T01:26:20;99923.00;;;8.78;56.91
47280;BME280;34064;44.942;0.008;2023-02-15T01:28:48;99923.09;;;8.76;56.98
47280;BME280;34064;44.942;0.008;2023-02-15T01:31:17;99919.75;;;8.72;56.76
47280;BME280;34064;44.942;0.008;2023-02-15T01:33:45;99924.63;;;8.63;57.41
47280;BME280;34064;44.942;0.008;2023-02-15T01:36:14;99927.38;;;8.61;56.87
47280;BME280;34064;44.942;0.008;2023-02-15T01:38:41;99935.47;;;8.58;57.02
47280;BME280;34064;44.942;0.008;2023-02-15T01:41:08;99933.97;;;8.52;57.51
47280;BME280;34064;44.942;0.008;2023-02-15T01:44:02;99937.66;;;8.50;57.31
47280;BME280;34064;44.942;0.008;2023-02-15T01:46:44;99936.84;;;8.48;57.00
47280;BME280;34064;44.942;0.008;2023-02-15T01:49:16;99940.41;;;8.47;56.80
47280;BME280;34064;44.942;0.008;2023-02-15T01:51:47;99938.78;;;8.44;56.88
47280;BME280;34064;44.942;0.008;2023-02-15T01:54:30;99941.50;;;8.42;56.89
47280;BME280;34064;44.942;0.008;2023-02-15T01:57:05;99938.06;;;8.40;56.83
47280;BME280;34064;44.942;0.008;2023-02-15T01:59:37;99936.50;;;8.36;56.90
47280;BME280;34064;44.942;0.008;2023-02-15T02:02:06;99940.09;;;8.35;56.61
47280;BME280;34064;44.942;0.008;2023-02-15T02:04:45;99948.19;;;8.32;56.79
47280;BME280;34064;44.942;0.008;2023-02-15T02:07:18;99940.38;;;8.29;56.97
47280;BME280;34064;44.942;0.008;2023-02-15T02:09:47;99935.25;;;8.26;56.90
47280;BME280;34064;44.942;0.008;2023-02-15T02:12:15;99931.88;;;8.22;56.59
47280;BME280;34064;44.942;0.008;2023-02-15T02:14:44;99940.84;;;8.20;56.85
47280;BME280;34064;44.942;0.008;2023-02-15T02:23:23;99936.00;;;8.10;56.82
47280;BME280;34064;44.942;0.008;2023-02-15T02:35:06;99950.47;;;8.03;56.67
47280;BME280;34064;44.942;0.008;2023-02-15T02:37:23;99948.72;;;8.02;56.82
47280;BME280;34064;44.942;0.008;2023-02-15T02:40:03;99946.19;;;8.01;56.67
47280;BME280;34064;44.942;0.008;2023-02-15T02:42:55;99949.75;;;8.00;56.69
47280;BME280;34064;44.942;0.008;2023-02-15T02:45:38;99944.59;;;7.96;56.76
47280;BME280;34064;44.942;0.008;2023-02-15T02:48:14;99951.69;;;7.96;56.59
47280;BME280;34064;44.942;0.008;2023-02-15T02:50:42;99961.59;;;7.91;56.79
47280;BME280;34064;44.942;0.008;2023-02-15T02:53:09;99957.25;;;7.90;56.49
47280;BME280;34064;44.942;0.008;2023-02-15T02:55:58;99948.47;;;7.89;56.70
47280;BME280;34064;44.942;0.008;2023-02-15T02:58:42;99946.75;;;7.88;56.50
47280;BME280;34064;44.942;0.008;2023-02-15T03:01:24;99948.53;;;7.88;56.44
47280;BME280;34064;44.942;0.008;2023-02-15T03:04:17;99944.19;;;7.87;56.56
47280;BME280;34064;44.942;0.008;2023-02-15T03:06:57;99947.75;;;7.86;56.49
47280;BME280;34064;44.942;0.008;2023-02-15T03:09:29;99944.31;;;7.84;56.42
47280;BME280;34064;44.942;0.008;2023-02-15T03:12:22;99940.88;;;7.81;56.95
47280;BME280;34064;44.942;0.008;2023-02-15T03:14:55;99945.31;;;7.81;56.44
47280;BME280;34064;44.942;0.008;2023-02-15T03:17:25;99948.81;;;7.81;56.35
47280;BME280;34064;44.942;0.008;2023-02-15T03:19:57;99949.81;;;7.79;56.63
47280;BME280;34064;44.942;0.008;2023-02-15T03:22:31;99941.97;;;7.77;56.59
47280;BME280;34064;44.942;0.008;2023-02-15T03:25:34;99945.53;;;7.76;56.51
47280;BME280;34064;44.942;0.008;2023-02-15T03:28:06;99951.97;;;7.71;56.56
47280;BME280;34064;44.942;0.008;2023-02-15T03:30:36;99956.34;;;7.72;56.45
47280;BME280;34064;44.942;0.008;2023-02-15T03:33:06;99966.22;;;7.68;56.66
47280;BME280;34064;44.942;0.008;2023-02-15T03:35:49;99960.19;;;7.64;56.58
47280;BME280;34064;44.942;0.008;2023-02-15T03:38:25;99962.91;;;7.63;56.64
47280;BME280;34064;44.942;0.008;2023-02-15T03:40:56;99954.16;;;7.61;56.86
47280;BME280;34064;44.942;0.008;2023-02-15T03:43:47;99955.16;;;7.58;57.78
47280;BME280;34064;44.942;0.008;2023-02-15T03:49:09;99956.97;;;7.58;56.79
47280;BME280;34064;44.942;0.008;2023-02-15T03:51:40;99964.03;;;7.57;56.98
47280;BME280;34064;44.942;0.008;2023-02-15T03:57:13;99949.03;;;7.58;56.65
47280;BME280;34064;44.942;0.008;2023-02-15T04:00:00;99941.25;;;7.55;56.58
47280;BME280;34064;44.942;0.008;2023-02-15T04:02:52;99938.69;;;7.53;56.82
47280;BME280;34064;44.942;0.008;2023-02-15T04:05:27;99940.59;;;7.49;56.84
47280;BME280;34064;44.942;0.008;2023-02-15T04:07:54;99943.25;;;7.49;56.64
47280;BME280;34064;44.942;0.008;2023-02-15T04:10:21;99947.81;;;7.46;57.39
47280;BME280;34064;44.942;0.008;2023-02-15T04:13:06;99949.59;;;7.45;56.62
47280;BME280;34064;44.942;0.008;2023-02-15T04:15:33;99949.59;;;7.45;56.81
47280;BME280;34064;44.942;0.008;2023-02-15T04:18:18;99953.16;;;7.44;56.53
47280;BME280;34064;44.942;0.008;2023-02-15T04:20:46;99956.72;;;7.43;56.91
47280;BME280;34064;44.942;0.008;2023-02-15T04:23:32;99955.88;;;7.43;56.72
47280;BME280;34064;44.942;0.008;2023-02-15T04:26:17;99957.66;;;7.42;56.74
47280;BME280;34064;44.942;0.008;2023-02-15T04:28:43;99940.16;;;7.40;56.78
47280;BME280;34064;44.942;0.008;2023-02-15T04:31:09;99955.22;;;7.38;56.71
47280;BME280;34064;44.942;0.008;2023-02-15T04:33:36;99966.94;;;7.32;57.32
47280;BME280;34064;44.942;0.008;2023-02-15T04:36:03;99963.56;;;7.28;57.49
47280;BME280;34064;44.942;0.008;2023-02-15T04:38:31;99964.50;;;7.27;57.09
47280;BME280;34064;44.942;0.008;2023-02-15T04:40:58;99959.28;;;7.26;57.34
47280;BME280;34064;44.942;0.008;2023-02-15T04:43:25;99957.56;;;7.25;57.18
47280;BME280;34064;44.942;0.008;2023-02-15T04:45:53;99959.28;;;7.26;57.20
47280;BME280;34064;44.942;0.008;2023-02-15T04:48:21;99957.56;;;7.25;56.81
47280;BME280;34064;44.942;0.008;2023-02-15T04:50:48;99951.41;;;7.24;57.04
47280;BME280;34064;44.942;0.008;2023-02-15T04:53:16;99959.41;;;7.23;57.12
47280;BME280;34064;44.942;0.008;2023-02-15T04:55:45;99955.91;;;7.22;57.22
47280;BME280;34064;44.942;0.008;2023-02-15T04:58:12;99950.72;;;7.21;57.07
47280;BME280;34064;44.942;0.008;2023-02-15T05:00:39;99960.41;;;7.20;57.42
47280;BME280;34064;44.942;0.008;2023-02-15T05:03:06;99963.03;;;7.20;57.46
47280;BME280;34064;44.942;0.008;2023-02-15T05:05:33;99959.56;;;7.20;57.09
47280;BME280;34064;44.942;0.008;2023-02-15T05:08:00;99955.28;;;7.17;57.74
47280;BME280;34064;44.942;0.008;2023-02-15T05:10:28;99960.56;;;7.17;57.14
47280;BME280;34064;44.942;0.008;2023-02-15T05:12:55;99952.69;;;7.15;57.30
47280;BME280;34064;44.942;0.008;2023-02-15T05:15:23;99954.53;;;7.13;57.24
47280;BME280;34064;44.942;0.008;2023-02-15T05:17:50;99954.59;;;7.12;57.41
47280;BME280;34064;44.942;0.008;2023-02-15T05:20:17;99959.09;;;7.10;57.70
47280;BME280;34064;44.942;0.008;2023-02-15T05:22:44;99964.31;;;7.11;57.37
47280;BME280;34064;44.942;0.008;2023-02-15T05:25:11;99961.81;;;7.08;57.82
47280;BME280;34064;44.942;0.008;2023-02-15T05:27:58;99970.66;;;7.07;57.49
47280;BME280;34064;44.942;0.008;2023-02-15T05:30:43;99968.94;;;7.06;57.39
47280;BME280;34064;44.942;0.008;2023-02-15T05:33:10;99968.09;;;7.06;57.57
47280;BME280;34064;44.942;0.008;2023-02-15T05:35:37;99968.94;;;7.06;57.35
47280;BME280;34064;44.942;0.008;2023-02-15T05:38:03;99966.44;;;7.03;57.50
47280;BME280;34064;44.942;0.008;2023-02-15T05:40:30;99962.94;;;7.02;57.32
47280;BME280;34064;44.942;0.008;2023-02-15T05:42:57;99964.72;;;7.02;57.41
47280;BME280;34064;44.942;0.008;2023-02-15T05:45:25;99967.38;;;7.02;57.13
47280;BME280;34064;44.942;0.008;2023-02-15T05:47:52;99972.66;;;7.02;57.21
47280;BME280;34064;44.942;0.008;2023-02-15T05:50:20;99973.56;;;7.01;57.14
47280;BME280;34064;44.942;0.008;2023-02-15T05:52:47;99976.22;;;7.01;57.02
47280;BME280;34064;44.942;0.008;2023-02-15T05:55:15;99979.78;;;7.00;57.17
47280;BME280;34064;44.942;0.008;2023-02-15T05:57:43;99979.06;;;6.96;57.38
47280;BME280;34064;44.942;0.008;2023-02-15T06:00:11;99974.69;;;6.95;57.15
47280;BME280;34064;44.942;0.008;2023-02-15T06:02:39;99980.06;;;6.94;57.16
47280;BME280;34064;44.942;0.008;2023-02-15T06:05:07;99989.81;;;6.92;57.00
47280;BME280;34064;44.942;0.008;2023-02-15T06:07:34;99987.31;;;6.89;56.99
47280;BME280;34064;44.942;0.008;2023-02-15T06:10:02;99989.13;;;6.86;56.86
47280;BME280;34064;44.942;0.008;2023-02-15T06:12:29;99991.00;;;6.84;56.72
47280;BME280;34064;44.942;0.008;2023-02-15T06:14:57;99988.41;;;6.83;56.80
47280;BME280;34064;44.942;0.008;2023-02-15T06:17:25;99992.06;;;6.80;56.83
47280;BME280;34064;44.942;0.008;2023-02-15T06:19:52;99988.69;;;6.77;57.12
47280;BME280;34064;44.942;0.008;2023-02-15T06:22:20;99996.69;;;6.75;56.83
47280;BME280;34064;44.942;0.008;2023-02-15T06:24:48;99995.00;;;6.72;56.86
47280;BME280;34064;44.942;0.008;2023-02-15T06:27:15;100002.16;;;6.70;56.76
47280;BME280;34064;44.942;0.008;2023-02-15T06:29:43;100006.69;;;6.67;56.94
47280;BME280;34064;44.942;0.008;2023-02-15T06:32:10;100002.34;;;6.66;56.80
47280;BME280;34064;44.942;0.008;2023-02-15T06:34:38;100003.56;;;6.57;57.28
47280;BME280;34064;44.942;0.008;2023-02-15T06:37:05;100007.06;;;6.58;56.99
47280;BME280;34064;44.942;0.008;2023-02-15T06:39:34;100018.53;;;6.56;56.98
47280;BME280;34064;44.942;0.008;2023-02-15T06:42:02;100012.53;;;6.53;56.94
47280;BME280;34064;44.942;0.008;2023-02-15T06:44:30;100014.44;;;6.49;56.88
47280;BME280;34064;44.942;0.008;2023-02-15T06:46:57;100024.19;;;6.47;56.95
47280;BME280;34064;44.942;0.008;2023-02-15T06:49:25;100017.22;;;6.46;56.88
47280;BME280;34064;44.942;0.008;2023-02-15T06:51:52;100029.59;;;6.44;57.09
47280;BME280;34064;44.942;0.008;2023-02-15T06:54:19;100031.44;;;6.42;56.97
47280;BME280;34064;44.942;0.008;2023-02-15T06:56:45;100029.72;;;6.41;56.85
47280;BME280;34064;44.942;0.008;2023-02-15T06:59:12;100027.16;;;6.39;56.82
47280;BME280;34064;44.942;0.008;2023-02-15T07:01:38;100033.41;;;6.37;56.70
47280;BME280;34064;44.942;0.008;2023-02-15T07:04:04;100036.97;;;6.36;56.69
47280;BME280;34064;44.942;0.008;2023-02-15T07:06:33;100042.38;;;6.33;56.78
47280;BME280;34064;44.942;0.008;2023-02-15T07:09:00;100048.63;;;6.30;56.86
47280;BME280;34064;44.942;0.008;2023-02-15T07:11:27;100043.53;;;6.26;57.05
47280;BME280;34064;44.942;0.008;2023-02-15T07:14:12;100046.16;;;6.26;56.83
47280;BME280;34064;44.942;0.008;2023-02-15T07:16:38;100046.28;;;6.22;56.76
47280;BME280;34064;44.942;0.008;2023-02-15T07:19:05;100059.47;;;6.22;56.83
47280;BME280;34064;44.942;0.008;2023-02-15T07:21:33;100063.91;;;6.22;56.72
47280;BME280;34064;44.942;0.008;2023-02-15T07:23:59;100056.03;;;6.20;56.63
47280;BME280;34064;44.942;0.008;2023-02-15T07:26:26;100054.31;;;6.19;56.57
47280;BME280;34064;44.942;0.008;2023-02-15T07:28:53;100054.31;;;6.19;56.52
47280;BME280;34064;44.942;0.008;2023-02-15T07:31:19;100055.25;;;6.18;56.66
47280;BME280;34064;44.942;0.008;2023-02-15T07:33:45;100055.25;;;6.18;56.71
47280;BME280;34064;44.942;0.008;2023-02-15T07:36:12;100056.16;;;6.17;56.56
47280;BME280;34064;44.942;0.008;2023-02-15T07:38:40;100054.47;;;6.15;56.50
47280;BME280;34064;44.942;0.008;2023-02-15T07:41:08;100062.38;;;6.16;56.70
47280;BME280;34064;44.942;0.008;2023-02-15T07:43:38;100061.47;;;6.16;56.70
47280;BME280;34064;44.942;0.008;2023-02-15T07:46:07;100058.81;;;6.17;56.57
47280;BME280;34064;44.942;0.008;2023-02-15T07:48:35;100063.94;;;6.20;56.48
47280;BME280;34064;44.942;0.008;2023-02-15T07:51:03;100063.84;;;6.23;56.40
47280;BME280;34064;44.942;0.008;2023-02-15T07:53:31;100064.75;;;6.22;56.29
47280;BME280;34064;44.942;0.008;2023-02-15T07:56:08;100062.00;;;6.26;56.44
47280;BME280;34064;44.942;0.008;2023-02-15T07:58:36;100072.31;;;6.32;56.47
47280;BME280;34064;44.942;0.008;2023-02-15T08:01:23;100071.28;;;6.36;56.52
47280;BME280;34064;44.942;0.008;2023-02-15T08:03:50;100071.97;;;6.41;56.69
47280;BME280;34064;44.942;0.008;2023-02-15T08:06:16;100076.97;;;6.47;56.54
47280;BME280;34064;44.942;0.008;2023-02-15T08:08:43;100071.47;;;6.53;56.58
47280;BME280;34064;44.942;0.008;2023-02-15T08:11:19;100072.03;;;6.62;56.74
47280;BME280;34064;44.942;0.008;2023-02-15T08:14:20;100067.31;;;6.70;56.70
47280;BME280;34064;44.942;0.008;2023-02-15T08:16:50;100065.94;;;6.82;57.08
47280;BME280;34064;44.942;0.008;2023-02-15T08:19:23;100058.34;;;6.95;56.96
47280;BME280;34064;44.942;0.008;2023-02-15T08:22:01;100052.56;;;7.07;56.96
47280;BME280;34064;44.942;0.008;2023-02-15T08:24:30;100049.41;;;7.20;57.18
47280;BME280;34064;44.942;0.008;2023-02-15T08:26:58;100042.72;;;7.31;57.10
47280;BME280;34064;44.942;0.008;2023-02-15T08:29:26;100045.78;;;7.43;57.13
47280;BME280;34064;44.942;0.008;2023-02-15T08:31:55;100043.44;;;7.56;57.02
47280;BME280;34064;44.942;0.008;2023-02-15T08:34:24;100033.25;;;7.67;57.32
47280;BME280;34064;44.942;0.008;2023-02-15T08:36:51;100025.75;;;7.77;57.39
47280;BME280;34064;44.942;0.008;2023-02-15T08:39:17;100019.91;;;7.89;57.11
47280;BME280;34064;44.942;0.008;2023-02-15T08:41:45;100015.69;;;8.04;57.13
47280;BME280;34064;44.942;0.008;2023-02-15T08:44:13;100015.97;;;8.17;57.07
47280;BME280;34064;44.942;0.008;2023-02-15T08:46:41;100011.81;;;8.31;57.00
47280;BME280;34064;44.942;0.008;2023-02-15T08:49:09;100011.28;;;8.41;56.44
47280;BME280;34064;44.942;0.008;2023-02-15T08:51:38;100000.28;;;8.51;56.76
47280;BME280;34064;44.942;0.008;2023-02-15T08:54:10;99993.81;;;8.56;56.68
47280;BME280;34064;44.942;0.008;2023-02-15T08:56:40;99998.44;;;8.70;56.60
47280;BME280;34064;44.942;0.008;2023-02-15T08:59:10;99995.88;;;8.86;56.38
47280;BME280;34064;44.942;0.008;2023-02-15T09:01:37;99989.69;;;9.03;56.48
47280;BME280;34064;44.942;0.008;2023-02-15T09:04:08;99982.69;;;9.20;56.55
47280;BME280;34064;44.942;0.008;2023-02-15T09:06:39;99985.13;;;9.41;56.54
47280;BME280;34064;44.942;0.008;2023-02-15T09:09:07;99969.09;;;9.60;56.68
47280;BME280;34064;44.942;0.008;2023-02-15T09:11:38;99956.81;;;9.75;56.29
47280;BME280;34064;44.942;0.008;2023-02-15T09:14:11;99953.28;;;9.90;56.21
47280;BME280;34064;44.942;0.008;2023-02-15T09:16:40;99947.97;;;10.06;56.34
47280;BME280;34064;44.942;0.008;2023-02-15T09:19:07;99947.56;;;10.14;56.31
47280;BME280;34064;44.942;0.008;2023-02-15T09:21:36;99945.84;;;10.29;56.38
47280;BME280;34064;44.942;0.008;2023-02-15T09:24:09;99944.88;;;10.46;56.24
47280;BME280;34064;44.942;0.008;2023-02-15T09:26:38;99942.09;;;10.64;56.25
47280;BME280;34064;44.942;0.008;2023-02-15T09:29:06;99935.88;;;10.79;55.95
47280;BME280;34064;44.942;0.008;2023-02-15T09:31:39;99935.41;;;10.87;55.94
47280;BME280;34064;44.942;0.008;2023-02-15T09:34:07;99932.13;;;10.98;55.93
47280;BME280;34064;44.942;0.008;2023-02-15T09:36:36;99937.66;;;11.09;56.31
47280;BME280;34064;44.942;0.008;2023-02-15T09:39:18;99925.66;;;11.31;55.92
47280;BME280;34064;44.942;0.008;2023-02-15T09:50:35;99912.34;;;11.74;55.12
47280;BME280;34064;44.942;0.008;2023-02-15T09:55:46;99917.34;;;11.93;55.29
47280;BME280;34064;44.942;0.008;2023-02-15T10:11:16;99905.81;;;12.35;54.74
47280;BME280;34064;44.942;0.008;2023-02-15T10:23:11;99892.13;;;12.67;54.74
47280;BME280;34064;44.942;0.008;2023-02-15T10:25:55;99892.47;;;12.75;54.72
47280;BME280;34064;44.942;0.008;2023-02-15T10:28:29;99899.72;;;12.86;54.59
47280;BME280;34064;44.942;0.008;2023-02-15T10:31:14;99902.06;;;12.90;54.52
47280;BME280;34064;44.942;0.008;2023-02-15T10:33:52;99904.00;;;13.01;54.19
47280;BME280;34064;44.942;0.008;2023-02-15T10:36:41;99894.19;;;13.15;53.64
47280;BME280;34064;44.942;0.008;2023-02-15T10:39:25;99898.31;;;13.19;53.70
47280;BME280;34064;44.942;0.008;2023-02-15T10:42:15;99889.66;;;13.28;53.65
47280;BME280;34064;44.942;0.008;2023-02-15T10:45:12;99896.06;;;13.38;53.27
47280;BME280;34064;44.942;0.008;2023-02-15T11:04:51;99867.00;;;14.21;51.89
47280;BME280;34064;44.942;0.008;2023-02-15T11:06:56;99871.41;;;14.33;51.42
47280;BME280;34064;44.942;0.008;2023-02-15T11:09:29;99861.13;;;14.40;51.62
47280;BME280;34064;44.942;0.008;2023-02-15T11:11:59;99861.59;;;14.45;51.39
47280;BME280;34064;44.942;0.008;2023-02-15T11:17:19;99866.94;;;14.70;51.19
47280;BME280;34064;44.942;0.008;2023-02-15T11:20:02;99864.28;;;14.81;50.96
47280;BME280;34064;44.942;0.008;2023-02-15T11:22:33;99845.34;;;14.95;50.85
47280;BME280;34064;44.942;0.008;2023-02-15T11:25:01;99839.28;;;15.05;50.56
47280;BME280;34064;44.942;0.008;2023-02-15T11:27:34;99841.91;;;15.16;50.83
47280;BME280;34064;44.942;0.008;2023-02-15T11:30:10;99832.56;;;15.33;50.59
47280;BME280;34064;44.942;0.008;2023-02-15T11:32:50;99831.44;;;15.47;50.71
47280;BME280;34064;44.942;0.008;2023-02-15T11:40:54;99814.31;;;15.82;49.69
47280;BME280;34064;44.942;0.008;2023-02-15T11:46:01;99801.22;;;16.12;48.92
47280;BME280;34064;44.942;0.008;2023-02-15T11:48:30;99786.16;;;16.20;48.48
47280;BME280;34064;44.942;0.008;2023-02-15T11:50:58;99779.31;;;16.28;48.06
47280;BME280;34064;44.942;0.008;2023-02-15T11:53:27;99765.84;;;16.39;47.57
47280;BME280;34064;44.942;0.008;2023-02-15T11:55:56;99775.66;;;16.50;47.59
47280;BME280;34064;44.942;0.008;2023-02-15T11:58:40;99770.47;;;16.58;47.76
47280;BME280;34064;44.942;0.008;2023-02-15T12:03:59;99755.47;;;16.87;47.51
47280;BME280;34064;44.942;0.008;2023-02-15T12:06:34;99759.41;;;17.04;46.91
47280;BME280;34064;44.942;0.008;2023-02-15T12:11:46;99755.91;;;17.13;46.62
47280;BME280;34064;44.942;0.008;2023-02-15T12:14:13;99739.38;;;17.18;46.62
47280;BME280;34064;44.942;0.008;2023-02-15T12:16:50;99749.88;;;17.30;46.54
47280;BME280;34064;44.942;0.008;2023-02-15T12:19:38;99745.66;;;17.48;45.74
47280;BME280;34064;44.942;0.008;2023-02-15T12:22:38;99744.25;;;17.53;45.73
47280;BME280;34064;44.942;0.008;2023-02-15T12:27:56;99723.63;;;17.73;45.08
47280;BME280;34064;44.942;0.008;2023-02-15T12:33:13;99724.91;;;17.89;44.54
47280;BME280;34064;44.942;0.008;2023-02-15T12:35:43;99716.69;;;18.00;44.38
47280;BME280;34064;44.942;0.008;2023-02-15T12:40:37;99714.84;;;18.11;43.96
47280;BME280;34064;44.942;0.008;2023-02-15T12:43:04;99712.28;;;18.19;43.42
47280;BME280;34064;44.942;0.008;2023-02-15T12:45:37;99701.09;;;18.33;42.68
47280;BME280;34064;44.942;0.008;2023-02-15T12:48:14;99700.09;;;18.34;43.15
47280;BME280;34064;44.942;0.008;2023-02-15T12:50:49;99696.66;;;18.42;43.28
47280;BME280;34064;44.942;0.008;2023-02-15T12:53:23;99693.41;;;18.48;42.98
47280;BME280;34064;44.942;0.008;2023-02-15T12:56:10;99684.81;;;18.63;43.18
47280;BME280;34064;44.942;0.008;2023-02-15T12:58:37;99679.25;;;18.74;42.64
47280;BME280;34064;44.942;0.008;2023-02-15T13:06:27;99672.34;;;18.99;42.21
47280;BME280;34064;44.942;0.008;2023-02-15T13:08:56;99665.81;;;19.02;41.97
47280;BME280;34064;44.942;0.008;2023-02-15T13:11:29;99673.44;;;19.07;41.71
47280;BME280;34064;44.942;0.008;2023-02-15T13:14:02;99672.16;;;19.11;41.98
47280;BME280;34064;44.942;0.008;2023-02-15T13:16:37;99663.88;;;19.22;41.13
47280;BME280;34064;44.942;0.008;2023-02-15T13:22:28;99656.16;;;19.27;41.17
47280;BME280;34064;44.942;0.008;2023-02-15T13:24:59;99660.91;;;19.33;40.84
47280;BME280;34064;44.942;0.008;2023-02-15T13:27:38;99654.25;;;19.38;40.94
47280;BME280;34064;44.942;0.008;2023-02-15T13:30:24;99653.31;;;19.47;41.13
47280;BME280;34064;44.942;0.008;2023-02-15T13:33:33;99650.91;;;19.62;40.81
47280;BME280;34064;44.942;0.008;2023-02-15T13:36:46;99643.44;;;19.74;40.68
47280;BME280;34064;44.942;0.008;2023-02-15T13:44:27;99637.56;;;19.97;40.08
47280;BME280;34064;44.942;0.008;2023-02-15T13:47:06;99627.84;;;20.04;40.05
47280;BME280;34064;44.942;0.008;2023-02-15T13:50:07;99632.28;;;20.13;39.23
47280;BME280;34064;44.942;0.008;2023-02-15T14:01:50;99620.28;;;20.42;38.69
47280;BME280;34064;44.942;0.008;2023-02-15T14:04:50;99614.41;;;20.47;38.64
47280;BME280;34064;44.942;0.008;2023-02-15T14:07:25;99607.03;;;20.57;38.54
47280;BME280;34064;44.942;0.008;2023-02-15T14:13:05;99596.13;;;20.75;37.69
47280;BME280;34064;44.942;0.008;2023-02-15T14:16:27;99596.50;;;20.80;36.84
47280;BME280;34064;44.942;0.008;2023-02-15T14:24:24;99594.16;;;21.02;36.77
47280;BME280;34064;44.942;0.008;2023-02-15T14:27:14;99592.53;;;21.17;35.75
47280;BME280;34064;44.942;0.008;2023-02-15T14:32:38;99588.81;;;21.27;36.08
47280;BME280;34064;44.942;0.008;2023-02-15T14:35:27;99587.13;;;21.42;36.03
47280;BME280;34064;44.942;0.008;2023-02-15T14:38:13;99579.69;;;21.53;36.48
47280;BME280;34064;44.942;0.008;2023-02-15T14:40:57;99566.69;;;21.64;35.58
47280;BME280;34064;44.942;0.008;2023-02-15T14:43:52;99562.44;;;21.78;35.43
47280;BME280;34064;44.942;0.008;2023-02-15T14:49:25;99567.84;;;21.95;35.41
47280;BME280;34064;44.942;0.008;2023-02-15T14:51:59;99560.03;;;22.00;35.24
47280;BME280;34064;44.942;0.008;2023-02-15T14:59:40;99564.56;;;22.16;34.18
47280;BME280;34064;44.942;0.008;2023-02-15T15:07:45;99565.88;;;22.28;33.99
47280;BME280;34064;44.942;0.008;2023-02-15T15:12:56;99567.47;;;22.54;33.42
47280;BME280;34064;44.942;0.008;2023-02-15T15:18:09;99556.41;;;22.64;33.21
47280;BME280;34064;44.942;0.008;2023-02-15T15:20:42;99553.16;;;22.69;33.47
47280;BME280;34064;44.942;0.008;2023-02-15T15:31:08;99572.06;;;22.77;33.01
47280;BME280;34064;44.942;0.008;2023-02-15T15:42:37;99554.91;;;23.40;31.72
47280;BME280;34064;44.942;0.008;2023-02-15T15:48:35;99561.84;;;23.42;31.48
47280;BME280;34064;44.942;0.008;2023-02-15T15:51:30;99553.47;;;23.29;31.90
47280;BME280;34064;44.942;0.008;2023-02-15T15:54:00;99557.31;;;23.34;31.60
47280;BME280;34064;44.942;0.008;2023-02-15T15:56:32;99563.97;;;23.32;31.71
47280;BME280;34064;44.942;0.008;2023-02-15T15:59:05;99564.13;;;23.30;31.61
47280;BME280;34064;44.942;0.008;2023-02-15T16:01:45;99567.22;;;23.27;31.97
47280;BME280;34064;44.942;0.008;2023-02-15T16:06:51;99571.09;;;23.25;31.97
47280;BME280;34064;44.942;0.008;2023-02-15T16:11:57;99587.78;;;23.13;31.65
47280;BME280;34064;44.942;0.008;2023-02-15T16:14:38;99584.09;;;23.06;32.00
47280;BME280;34064;44.942;0.008;2023-02-15T16:17:08;99597.22;;;22.94;31.88
47280;BME280;34064;44.942;0.008;2023-02-15T16:19:41;99596.25;;;22.87;31.20
47280;BME280;34064;44.942;0.008;2023-02-15T16:22:13;99595.09;;;22.81;31.81
47280;BME280;34064;44.942;0.008;2023-02-15T16:27:38;99575.16;;;23.29;30.92
47280;BME280;34064;44.942;0.008;2023-02-15T16:30:30;99530.59;;;24.29;28.98